Glencoe, Minnesota
Current Conditions -  °F | °C
As of 10:34 AM on Saturday 25 Oct 2014 (Local Time) from KGYL Reporting Station
Clear Clear  
Wind Chill: 56°   Ceiling: Unl
Heat Index: 56°   Visibility: 10mi
Dew Point: 35°   Wind: 12mph
Humidity: 45%   Direction: 300°WNW
Pressure: 30.08"   Gusts: NA
Location:  44.77°N, 94.15°W
Report Text: KGYL 251534Z AUTO 30010KT 10SM CLR 14/02 A3008 RMK AO2 T01350016
Loading
Personal Weather Stations






























Interactive Weather Map
Tropical Storm Tracking
New forecast layout! Learn more

10-Day Weather Forecast

Advertisements
Track Severe Weather on mobile